sensor_id;sensor_type;location;lat;lon;timestamp;temperature;humidity
39525;DHT22;25203;50.754;6.978;2022-09-09T00:00:18;15.90;99.90
39525;DHT22;25203;50.754;6.978;2022-09-09T00:02:21;16.00;99.90
39525;DHT22;25203;50.754;6.978;2022-09-09T00:06:32;15.90;99.90
39525;DHT22;25203;50.754;6.978;2022-09-09T00:10:59;15.80;99.90
39525;DHT22;25203;50.754;6.978;2022-09-09T00:13:14;15.80;99.90
39525;DHT22;25203;50.754;6.978;2022-09-09T00:15:25;15.70;99.90
39525;DHT22;25203;50.754;6.978;2022-09-09T00:17:35;15.70;99.90
39525;DHT22;25203;50.754;6.978;2022-09-09T00:19:56;15.70;99.90
39525;DHT22;25203;50.754;6.978;2022-09-09T00:24:23;15.70;99.90
39525;DHT22;25203;50.754;6.978;2022-09-09T00:26:53;15.70;99.90
39525;DHT22;25203;50.754;6.978;2022-09-09T00:29:05;15.70;99.90
39525;DHT22;25203;50.754;6.978;2022-09-09T00:31:16;15.60;99.90
39525;DHT22;25203;50.754;6.978;2022-09-09T00:33:23;15.60;99.90
39525;DHT22;25203;50.754;6.978;2022-09-09T00:35:29;15.60;99.90
39525;DHT22;25203;50.754;6.978;2022-09-09T00:37:30;15.50;99.90
39525;DHT22;25203;50.754;6.978;2022-09-09T00:39:39;15.60;99.90
39525;DHT22;25203;50.754;6.978;2022-09-09T00:42:02;15.50;99.90
39525;DHT22;25203;50.754;6.978;2022-09-09T00:46:22;15.50;99.90
39525;DHT22;25203;50.754;6.978;2022-09-09T00:48:34;15.50;99.90
39525;DHT22;25203;50.754;6.978;2022-09-09T00:50:53;15.40;99.90
39525;DHT22;25203;50.754;6.978;2022-09-09T00:57:31;15.10;99.90
39525;DHT22;25203;50.754;6.978;2022-09-09T01:01:41;15.00;99.90
39525;DHT22;25203;50.754;6.978;2022-09-09T01:03:55;14.90;99.90
39525;DHT22;25203;50.754;6.978;2022-09-09T01:10:36;15.00;99.90
39525;DHT22;25203;50.754;6.978;2022-09-09T01:12:42;14.90;99.90
39525;DHT22;25203;50.754;6.978;2022-09-09T01:14:54;15.00;99.90
39525;DHT22;25203;50.754;6.978;2022-09-09T01:17:04;15.10;99.90
39525;DHT22;25203;50.754;6.978;2022-09-09T01:19:07;15.10;99.90
39525;DHT22;25203;50.754;6.978;2022-09-09T01:23:51;15.20;99.90
39525;DHT22;25203;50.754;6.978;2022-09-09T01:28:26;15.20;99.90
39525;DHT22;25203;50.754;6.978;2022-09-09T01:30:28;15.30;99.90
39525;DHT22;25203;50.754;6.978;2022-09-09T01:32:46;15.20;99.90
39525;DHT22;25203;50.754;6.978;2022-09-09T01:34:47;15.20;99.90
39525;DHT22;25203;50.754;6.978;2022-09-09T01:36:59;15.20;99.90
39525;DHT22;25203;50.754;6.978;2022-09-09T01:39:01;15.30;99.90
39525;DHT22;25203;50.754;6.978;2022-09-09T01:41:02;15.30;99.90
39525;DHT22;25203;50.754;6.978;2022-09-09T01:43:03;15.30;99.90
39525;DHT22;25203;50.754;6.978;2022-09-09T01:45:05;15.30;99.90
39525;DHT22;25203;50.754;6.978;2022-09-09T01:47:06;15.30;99.90
39525;DHT22;25203;50.754;6.978;2022-09-09T01:49:07;15.40;99.90
39525;DHT22;25203;50.754;6.978;2022-09-09T01:51:09;15.40;99.90
39525;DHT22;25203;50.754;6.978;2022-09-09T01:53:14;15.40;99.90
39525;DHT22;25203;50.754;6.978;2022-09-09T01:55:16;15.50;99.90
39525;DHT22;25203;50.754;6.978;2022-09-09T01:57:25;15.60;99.90
39525;DHT22;25203;50.754;6.978;2022-09-09T01:59:53;15.50;99.90
39525;DHT22;25203;50.754;6.978;2022-09-09T02:02:18;15.60;99.90
39525;DHT22;25203;50.754;6.978;2022-09-09T02:06:34;15.50;99.90
39525;DHT22;25203;50.754;6.978;2022-09-09T02:10:51;15.50;99.90
39525;DHT22;25203;50.754;6.978;2022-09-09T02:13:03;15.50;99.90
39525;DHT22;25203;50.754;6.978;2022-09-09T02:15:11;15.60;99.90
39525;DHT22;25203;50.754;6.978;2022-09-09T02:17:15;15.60;99.90
39525;DHT22;25203;50.754;6.978;2022-09-09T02:21:30;15.70;99.90
39525;DHT22;25203;50.754;6.978;2022-09-09T02:23:32;15.70;99.90
39525;DHT22;25203;50.754;6.978;2022-09-09T02:25:35;15.70;99.90
39525;DHT22;25203;50.754;6.978;2022-09-09T02:27:37;15.70;99.90
39525;DHT22;25203;50.754;6.978;2022-09-09T02:29:42;15.80;99.90
39525;DHT22;25203;50.754;6.978;2022-09-09T02:31:46;15.80;99.90
39525;DHT22;25203;50.754;6.978;2022-09-09T02:33:52;15.80;99.90
39525;DHT22;25203;50.754;6.978;2022-09-09T02:35:55;15.90;99.90
39525;DHT22;25203;50.754;6.978;2022-09-09T02:38:08;16.00;99.90
39525;DHT22;25203;50.754;6.978;2022-09-09T02:40:11;16.10;99.90
39525;DHT22;25203;50.754;6.978;2022-09-09T02:42:13;16.10;99.90
39525;DHT22;25203;50.754;6.978;2022-09-09T02:44:17;16.10;99.90
39525;DHT22;25203;50.754;6.978;2022-09-09T02:49:06;16.10;99.90
39525;DHT22;25203;50.754;6.978;2022-09-09T02:51:16;16.10;99.90
39525;DHT22;25203;50.754;6.978;2022-09-09T02:53:37;16.00;99.90
39525;DHT22;25203;50.754;6.978;2022-09-09T02:55:48;16.00;99.90
39525;DHT22;25203;50.754;6.978;2022-09-09T02:57:51;16.10;99.90
39525;DHT22;25203;50.754;6.978;2022-09-09T02:59:52;16.10;99.90
39525;DHT22;25203;50.754;6.978;2022-09-09T03:01:53;16.10;99.90
39525;DHT22;25203;50.754;6.978;2022-09-09T03:03:54;16.10;99.90
39525;DHT22;25203;50.754;6.978;2022-09-09T03:05:55;16.10;99.90
39525;DHT22;25203;50.754;6.978;2022-09-09T03:07:57;16.20;99.90
39525;DHT22;25203;50.754;6.978;2022-09-09T03:09:58;16.20;99.90
39525;DHT22;25203;50.754;6.978;2022-09-09T03:11:59;16.10;99.90
39525;DHT22;25203;50.754;6.978;2022-09-09T03:14:01;16.20;99.90
39525;DHT22;25203;50.754;6.978;2022-09-09T03:16:02;16.10;99.90
39525;DHT22;25203;50.754;6.978;2022-09-09T03:18:04;16.10;99.90
39525;DHT22;25203;50.754;6.978;2022-09-09T03:20:05;16.10;99.90
39525;DHT22;25203;50.754;6.978;2022-09-09T03:22:06;16.10;99.90
39525;DHT22;25203;50.754;6.978;2022-09-09T03:24:06;16.00;99.90
39525;DHT22;25203;50.754;6.978;2022-09-09T03:26:07;16.00;99.90
39525;DHT22;25203;50.754;6.978;2022-09-09T03:28:08;16.00;99.90
39525;DHT22;25203;50.754;6.978;2022-09-09T03:30:09;16.00;99.90
39525;DHT22;25203;50.754;6.978;2022-09-09T03:32:09;16.00;99.90
39525;DHT22;25203;50.754;6.978;2022-09-09T03:34:11;16.00;99.90
39525;DHT22;25203;50.754;6.978;2022-09-09T03:36:11;16.00;99.90
39525;DHT22;25203;50.754;6.978;2022-09-09T03:38:12;15.90;99.90
39525;DHT22;25203;50.754;6.978;2022-09-09T03:40:13;15.90;99.90
39525;DHT22;25203;50.754;6.978;2022-09-09T03:42:15;15.90;99.90
39525;DHT22;25203;50.754;6.978;2022-09-09T03:44:18;15.90;99.90
39525;DHT22;25203;50.754;6.978;2022-09-09T03:46:21;16.00;99.90
39525;DHT22;25203;50.754;6.978;2022-09-09T03:48:22;16.00;99.90
39525;DHT22;25203;50.754;6.978;2022-09-09T03:50:23;15.90;99.90
39525;DHT22;25203;50.754;6.978;2022-09-09T03:52:24;16.00;99.90
39525;DHT22;25203;50.754;6.978;2022-09-09T03:54:26;16.00;99.90
39525;DHT22;25203;50.754;6.978;2022-09-09T03:56:27;16.00;99.90
39525;DHT22;25203;50.754;6.978;2022-09-09T03:58:28;16.00;99.90
39525;DHT22;25203;50.754;6.978;2022-09-09T04:00:28;16.00;99.90
39525;DHT22;25203;50.754;6.978;2022-09-09T04:02:31;16.10;99.90
39525;DHT22;25203;50.754;6.978;2022-09-09T04:04:31;16.10;99.90
39525;DHT22;25203;50.754;6.978;2022-09-09T04:06:32;16.20;99.90
39525;DHT22;25203;50.754;6.978;2022-09-09T04:08:33;16.10;99.90
39525;DHT22;25203;50.754;6.978;2022-09-09T04:10:35;16.10;99.90
39525;DHT22;25203;50.754;6.978;2022-09-09T04:12:39;16.10;99.90
39525;DHT22;25203;50.754;6.978;2022-09-09T04:14:40;16.10;99.90
39525;DHT22;25203;50.754;6.978;2022-09-09T04:16:41;16.10;99.90
39525;DHT22;25203;50.754;6.978;2022-09-09T04:18:44;16.10;99.90
39525;DHT22;25203;50.754;6.978;2022-09-09T04:20:49;16.10;99.90
39525;DHT22;25203;50.754;6.978;2022-09-09T04:22:50;16.20;99.90
39525;DHT22;25203;50.754;6.978;2022-09-09T04:24:51;16.20;99.90
39525;DHT22;25203;50.754;6.978;2022-09-09T04:26:52;16.20;99.90
39525;DHT22;25203;50.754;6.978;2022-09-09T04:28:52;16.20;99.90
39525;DHT22;25203;50.754;6.978;2022-09-09T04:30:53;16.20;99.90
39525;DHT22;25203;50.754;6.978;2022-09-09T04:32:54;16.20;99.90
39525;DHT22;25203;50.754;6.978;2022-09-09T04:34:54;16.20;99.90
39525;DHT22;25203;50.754;6.978;2022-09-09T04:36:55;16.20;99.90
39525;DHT22;25203;50.754;6.978;2022-09-09T04:38:57;16.20;99.90
39525;DHT22;25203;50.754;6.978;2022-09-09T04:40:57;16.20;99.90
39525;DHT22;25203;50.754;6.978;2022-09-09T04:42:59;16.20;99.90
39525;DHT22;25203;50.754;6.978;2022-09-09T04:45:00;16.20;99.90
39525;DHT22;25203;50.754;6.978;2022-09-09T04:47:01;16.10;99.90
39525;DHT22;25203;50.754;6.978;2022-09-09T04:49:02;16.10;99.90
39525;DHT22;25203;50.754;6.978;2022-09-09T04:51:09;16.10;99.90
39525;DHT22;25203;50.754;6.978;2022-09-09T04:53:11;16.10;99.90
39525;DHT22;25203;50.754;6.978;2022-09-09T04:55:12;16.00;99.90
39525;DHT22;25203;50.754;6.978;2022-09-09T04:57:13;16.00;99.90
39525;DHT22;25203;50.754;6.978;2022-09-09T04:59:14;15.90;99.90
39525;DHT22;25203;50.754;6.978;2022-09-09T05:01:21;15.90;99.90
39525;DHT22;25203;50.754;6.978;2022-09-09T05:03:22;16.00;99.90
39525;DHT22;25203;50.754;6.978;2022-09-09T05:05:22;16.00;99.90
39525;DHT22;25203;50.754;6.978;2022-09-09T05:07:24;16.00;99.90
39525;DHT22;25203;50.754;6.978;2022-09-09T05:09:26;16.00;99.90
39525;DHT22;25203;50.754;6.978;2022-09-09T05:11:29;16.00;99.90
39525;DHT22;25203;50.754;6.978;2022-09-09T05:13:30;16.10;99.90
39525;DHT22;25203;50.754;6.978;2022-09-09T05:15:32;16.00;99.90
39525;DHT22;25203;50.754;6.978;2022-09-09T05:17:32;16.10;99.90
39525;DHT22;25203;50.754;6.978;2022-09-09T05:19:34;16.10;99.90
39525;DHT22;25203;50.754;6.978;2022-09-09T05:21:34;16.10;99.90
39525;DHT22;25203;50.754;6.978;2022-09-09T05:23:35;16.20;99.90
39525;DHT22;25203;50.754;6.978;2022-09-09T05:25:36;16.20;99.90
39525;DHT22;25203;50.754;6.978;2022-09-09T05:27:37;16.20;99.90
39525;DHT22;25203;50.754;6.978;2022-09-09T05:29:38;16.20;99.90
39525;DHT22;25203;50.754;6.978;2022-09-09T05:31:39;16.20;99.90
39525;DHT22;25203;50.754;6.978;2022-09-09T05:33:41;16.20;99.90
39525;DHT22;25203;50.754;6.978;2022-09-09T05:35:43;16.20;99.90
39525;DHT22;25203;50.754;6.978;2022-09-09T05:37:44;16.20;99.90
39525;DHT22;25203;50.754;6.978;2022-09-09T05:39:46;16.20;99.90
39525;DHT22;25203;50.754;6.978;2022-09-09T05:41:46;16.20;99.90
39525;DHT22;25203;50.754;6.978;2022-09-09T05:43:47;16.20;99.90
39525;DHT22;25203;50.754;6.978;2022-09-09T05:45:58;16.20;99.90
39525;DHT22;25203;50.754;6.978;2022-09-09T05:48:01;16.20;99.90
39525;DHT22;25203;50.754;6.978;2022-09-09T05:50:03;16.20;99.90
39525;DHT22;25203;50.754;6.978;2022-09-09T05:52:03;16.20;99.90
39525;DHT22;25203;50.754;6.978;2022-09-09T05:54:04;16.20;99.90
39525;DHT22;25203;50.754;6.978;2022-09-09T05:56:07;16.20;99.90
39525;DHT22;25203;50.754;6.978;2022-09-09T05:58:11;16.30;99.90
39525;DHT22;25203;50.754;6.978;2022-09-09T06:00:12;16.40;99.90
39525;DHT22;25203;50.754;6.978;2022-09-09T06:02:13;16.50;99.90
39525;DHT22;25203;50.754;6.978;2022-09-09T06:04:14;16.50;99.90
39525;DHT22;25203;50.754;6.978;2022-09-09T06:06:21;16.60;99.90
39525;DHT22;25203;50.754;6.978;2022-09-09T06:08:22;16.60;99.90
39525;DHT22;25203;50.754;6.978;2022-09-09T06:10:22;16.60;99.90
39525;DHT22;25203;50.754;6.978;2022-09-09T06:12:23;16.70;99.90
39525;DHT22;25203;50.754;6.978;2022-09-09T06:14:24;16.80;99.90
39525;DHT22;25203;50.754;6.978;2022-09-09T06:16:27;16.80;99.90
39525;DHT22;25203;50.754;6.978;2022-09-09T06:18:28;16.80;99.90
39525;DHT22;25203;50.754;6.978;2022-09-09T06:20:29;16.90;99.90
39525;DHT22;25203;50.754;6.978;2022-09-09T06:22:31;17.00;99.90
39525;DHT22;25203;50.754;6.978;2022-09-09T06:24:32;17.10;99.90
39525;DHT22;25203;50.754;6.978;2022-09-09T06:26:35;17.20;99.90
39525;DHT22;25203;50.754;6.978;2022-09-09T06:28:36;17.30;99.90
39525;DHT22;25203;50.754;6.978;2022-09-09T06:30:37;17.40;99.90
39525;DHT22;25203;50.754;6.978;2022-09-09T06:32:38;17.60;99.90
39525;DHT22;25203;50.754;6.978;2022-09-09T06:34:39;17.60;99.90
39525;DHT22;25203;50.754;6.978;2022-09-09T06:36:40;17.60;99.90
39525;DHT22;25203;50.754;6.978;2022-09-09T06:38:44;17.70;99.90
39525;DHT22;25203;50.754;6.978;2022-09-09T06:40:53;17.80;99.90
39525;DHT22;25203;50.754;6.978;2022-09-09T06:42:59;17.80;99.90
39525;DHT22;25203;50.754;6.978;2022-09-09T06:45:00;17.90;99.90
39525;DHT22;25203;50.754;6.978;2022-09-09T06:47:01;18.00;99.90
39525;DHT22;25203;50.754;6.978;2022-09-09T06:49:02;18.10;99.90
39525;DHT22;25203;50.754;6.978;2022-09-09T06:51:04;18.20;99.90
39525;DHT22;25203;50.754;6.978;2022-09-09T06:53:05;18.30;99.90
39525;DHT22;25203;50.754;6.978;2022-09-09T06:55:06;18.40;99.90
39525;DHT22;25203;50.754;6.978;2022-09-09T06:57:07;18.70;99.90
39525;DHT22;25203;50.754;6.978;2022-09-09T06:59:08;19.70;99.90
39525;DHT22;25203;50.754;6.978;2022-09-09T07:01:11;20.70;99.90
39525;DHT22;25203;50.754;6.978;2022-09-09T07:03:15;21.60;99.90
39525;DHT22;25203;50.754;6.978;2022-09-09T07:05:16;22.40;97.60
39525;DHT22;25203;50.754;6.978;2022-09-09T07:07:16;22.90;95.30
39525;DHT22;25203;50.754;6.978;2022-09-09T07:09:18;22.40;95.00
39525;DHT22;25203;50.754;6.978;2022-09-09T07:11:20;22.00;96.90
39525;DHT22;25203;50.754;6.978;2022-09-09T07:13:25;21.40;98.90
39525;DHT22;25203;50.754;6.978;2022-09-09T07:15:26;20.90;99.90
39525;DHT22;25203;50.754;6.978;2022-09-09T07:17:27;20.60;99.90
39525;DHT22;25203;50.754;6.978;2022-09-09T07:19:29;20.40;99.90
39525;DHT22;25203;50.754;6.978;2022-09-09T07:21:31;20.40;99.90
39525;DHT22;25203;50.754;6.978;2022-09-09T07:23:32;20.30;99.90
39525;DHT22;25203;50.754;6.978;2022-09-09T07:25:33;20.10;99.90
39525;DHT22;25203;50.754;6.978;2022-09-09T07:27:33;20.10;99.90
39525;DHT22;25203;50.754;6.978;2022-09-09T07:29:34;20.20;99.90
39525;DHT22;25203;50.754;6.978;2022-09-09T07:31:38;20.50;99.90
39525;DHT22;25203;50.754;6.978;2022-09-09T07:33:40;21.20;99.90
39525;DHT22;25203;50.754;6.978;2022-09-09T07:35:41;22.40;97.00
39525;DHT22;25203;50.754;6.978;2022-09-09T07:37:42;24.20;91.80
39525;DHT22;25203;50.754;6.978;2022-09-09T07:39:43;25.10;84.30
39525;DHT22;25203;50.754;6.978;2022-09-09T07:41:46;24.50;82.00
39525;DHT22;25203;50.754;6.978;2022-09-09T07:43:49;23.20;87.70
39525;DHT22;25203;50.754;6.978;2022-09-09T07:45:57;22.00;93.40
39525;DHT22;25203;50.754;6.978;2022-09-09T07:47:58;21.10;96.50
39525;DHT22;25203;50.754;6.978;2022-09-09T07:49:58;20.40;98.50
39525;DHT22;25203;50.754;6.978;2022-09-09T07:51:59;20.00;99.90
39525;DHT22;25203;50.754;6.978;2022-09-09T07:54:02;19.50;99.90
39525;DHT22;25203;50.754;6.978;2022-09-09T07:56:05;19.30;99.90
39525;DHT22;25203;50.754;6.978;2022-09-09T07:58:06;19.20;99.90
39525;DHT22;25203;50.754;6.978;2022-09-09T08:00:07;19.10;99.90
39525;DHT22;25203;50.754;6.978;2022-09-09T08:02:09;18.90;99.90
39525;DHT22;25203;50.754;6.978;2022-09-09T08:04:12;18.80;99.90
39525;DHT22;25203;50.754;6.978;2022-09-09T08:06:16;18.70;99.90
39525;DHT22;25203;50.754;6.978;2022-09-09T08:08:17;18.70;99.90
39525;DHT22;25203;50.754;6.978;2022-09-09T08:10:18;18.70;99.90
39525;DHT22;25203;50.754;6.978;2022-09-09T08:12:18;18.70;99.90
39525;DHT22;25203;50.754;6.978;2022-09-09T08:14:19;18.70;99.90
39525;DHT22;25203;50.754;6.978;2022-09-09T08:16:23;18.80;99.90
39525;DHT22;25203;50.754;6.978;2022-09-09T08:18:23;20.10;99.90
39525;DHT22;25203;50.754;6.978;2022-09-09T08:20:24;20.90;98.20
39525;DHT22;25203;50.754;6.978;2022-09-09T08:22:25;22.00;96.20
39525;DHT22;25203;50.754;6.978;2022-09-09T08:24:26;22.00;93.30
39525;DHT22;25203;50.754;6.978;2022-09-09T08:26:29;22.40;91.30
39525;DHT22;25203;50.754;6.978;2022-09-09T08:28:30;22.90;89.10
39525;DHT22;25203;50.754;6.978;2022-09-09T08:30:31;22.50;89.20
39525;DHT22;25203;50.754;6.978;2022-09-09T08:32:32;22.10;90.90
39525;DHT22;25203;50.754;6.978;2022-09-09T08:34:32;21.50;92.10
39525;DHT22;25203;50.754;6.978;2022-09-09T08:36:36;21.10;92.30
39525;DHT22;25203;50.754;6.978;2022-09-09T08:38:37;20.70;93.40
39525;DHT22;25203;50.754;6.978;2022-09-09T08:40:42;20.30;93.80
39525;DHT22;25203;50.754;6.978;2022-09-09T08:42:50;20.20;94.40
39525;DHT22;25203;50.754;6.978;2022-09-09T08:47:43;20.00;96.30
39525;DHT22;25203;50.754;6.978;2022-09-09T08:52:20;19.50;96.80
39525;DHT22;25203;50.754;6.978;2022-09-09T08:54:23;19.30;98.60
39525;DHT22;25203;50.754;6.978;2022-09-09T08:56:24;19.60;99.90
39525;DHT22;25203;50.754;6.978;2022-09-09T08:58:31;20.40;99.50
39525;DHT22;25203;50.754;6.978;2022-09-09T09:00:42;21.40;93.70
39525;DHT22;25203;50.754;6.978;2022-09-09T09:03:01;21.70;93.00
39525;DHT22;25203;50.754;6.978;2022-09-09T09:12:00;21.30;93.20
39525;DHT22;25203;50.754;6.978;2022-09-09T09:14:25;20.50;94.50
39525;DHT22;25203;50.754;6.978;2022-09-09T09:18:36;20.00;95.50
39525;DHT22;25203;50.754;6.978;2022-09-09T09:21:03;19.80;96.30
39525;DHT22;25203;50.754;6.978;2022-09-09T09:23:05;19.60;98.20
39525;DHT22;25203;50.754;6.978;2022-09-09T09:29:38;19.80;99.00
39525;DHT22;25203;50.754;6.978;2022-09-09T09:31:47;20.00;97.00
39525;DHT22;25203;50.754;6.978;2022-09-09T09:33:50;20.10;96.50
39525;DHT22;25203;50.754;6.978;2022-09-09T09:35:53;20.10;95.90
39525;DHT22;25203;50.754;6.978;2022-09-09T09:37:54;20.20;95.00
39525;DHT22;25203;50.754;6.978;2022-09-09T09:39:55;20.20;94.50
39525;DHT22;25203;50.754;6.978;2022-09-09T09:41:56;20.00;95.80
39525;DHT22;25203;50.754;6.978;2022-09-09T09:43:58;20.00;96.70
39525;DHT22;25203;50.754;6.978;2022-09-09T09:46:03;20.00;95.70
39525;DHT22;25203;50.754;6.978;2022-09-09T09:48:09;19.90;95.40
39525;DHT22;25203;50.754;6.978;2022-09-09T09:50:18;20.10;94.60
39525;DHT22;25203;50.754;6.978;2022-09-09T09:52:23;20.40;95.30
39525;DHT22;25203;50.754;6.978;2022-09-09T09:54:33;21.20;93.10
39525;DHT22;25203;50.754;6.978;2022-09-09T09:56:36;21.80;92.30
39525;DHT22;25203;50.754;6.978;2022-09-09T10:00:50;23.50;84.80
39525;DHT22;25203;50.754;6.978;2022-09-09T10:02:51;23.40;82.80
39525;DHT22;25203;50.754;6.978;2022-09-09T10:07:22;23.70;81.20
39525;DHT22;25203;50.754;6.978;2022-09-09T10:09:30;24.10;82.50
39525;DHT22;25203;50.754;6.978;2022-09-09T10:12:35;23.40;83.50
39525;DHT22;25203;50.754;6.978;2022-09-09T10:19:00;21.30;90.30
39525;DHT22;25203;50.754;6.978;2022-09-09T10:28:51;20.20;94.70
39525;DHT22;25203;50.754;6.978;2022-09-09T10:35:39;19.90;95.30
39525;DHT22;25203;50.754;6.978;2022-09-09T10:40:44;20.00;95.50
39525;DHT22;25203;50.754;6.978;2022-09-09T10:42:56;20.20;95.50
39525;DHT22;25203;50.754;6.978;2022-09-09T10:45:18;20.40;95.80
39525;DHT22;25203;50.754;6.978;2022-09-09T10:47:24;20.50;94.80
39525;DHT22;25203;50.754;6.978;2022-09-09T10:51:58;20.80;93.60
39525;DHT22;25203;50.754;6.978;2022-09-09T10:56:18;20.90;92.90
39525;DHT22;25203;50.754;6.978;2022-09-09T11:00:41;20.80;93.10
39525;DHT22;25203;50.754;6.978;2022-09-09T11:02:43;20.80;95.30
39525;DHT22;25203;50.754;6.978;2022-09-09T11:04:59;20.90;93.40
39525;DHT22;25203;50.754;6.978;2022-09-09T11:07:05;21.20;92.70
39525;DHT22;25203;50.754;6.978;2022-09-09T11:09:15;21.30;90.40
39525;DHT22;25203;50.754;6.978;2022-09-09T11:11:20;21.50;90.20
39525;DHT22;25203;50.754;6.978;2022-09-09T11:13:30;21.40;90.30
39525;DHT22;25203;50.754;6.978;2022-09-09T11:15:44;21.40;89.60
39525;DHT22;25203;50.754;6.978;2022-09-09T11:17:52;21.50;89.70
39525;DHT22;25203;50.754;6.978;2022-09-09T11:19:55;21.50;89.10
39525;DHT22;25203;50.754;6.978;2022-09-09T11:21:56;21.30;90.30
39525;DHT22;25203;50.754;6.978;2022-09-09T11:24:29;21.10;89.60
39525;DHT22;25203;50.754;6.978;2022-09-09T11:26:37;20.80;90.60
39525;DHT22;25203;50.754;6.978;2022-09-09T11:32:03;20.80;91.90
39525;DHT22;25203;50.754;6.978;2022-09-09T11:34:03;21.00;91.80
39525;DHT22;25203;50.754;6.978;2022-09-09T11:38:33;21.60;91.50
39525;DHT22;25203;50.754;6.978;2022-09-09T11:40:37;22.00;90.70
39525;DHT22;25203;50.754;6.978;2022-09-09T11:42:38;21.80;90.20
39525;DHT22;25203;50.754;6.978;2022-09-09T11:44:39;21.70;90.00
39525;DHT22;25203;50.754;6.978;2022-09-09T11:46:41;22.00;90.40
39525;DHT22;25203;50.754;6.978;2022-09-09T11:48:44;22.10;88.80
39525;DHT22;25203;50.754;6.978;2022-09-09T11:50:46;21.90;87.50
39525;DHT22;25203;50.754;6.978;2022-09-09T11:53:06;21.70;87.80
39525;DHT22;25203;50.754;6.978;2022-09-09T11:55:32;21.20;88.80
39525;DHT22;25203;50.754;6.978;2022-09-09T11:57:35;20.90;89.40
39525;DHT22;25203;50.754;6.978;2022-09-09T11:59:36;20.70;90.30
39525;DHT22;25203;50.754;6.978;2022-09-09T12:01:44;20.70;90.80
39525;DHT22;25203;50.754;6.978;2022-09-09T12:03:52;20.60;90.90
39525;DHT22;25203;50.754;6.978;2022-09-09T12:05:56;20.60;91.60
39525;DHT22;25203;50.754;6.978;2022-09-09T12:07:58;20.70;92.90
39525;DHT22;25203;50.754;6.978;2022-09-09T12:10:19;21.00;90.80
39525;DHT22;25203;50.754;6.978;2022-09-09T12:12:25;21.00;91.70
39525;DHT22;25203;50.754;6.978;2022-09-09T12:14:38;21.00;91.80
39525;DHT22;25203;50.754;6.978;2022-09-09T12:16:39;21.10;89.40
39525;DHT22;25203;50.754;6.978;2022-09-09T12:18:40;21.00;89.00
39525;DHT22;25203;50.754;6.978;2022-09-09T12:20:57;20.90;88.30
39525;DHT22;25203;50.754;6.978;2022-09-09T12:26:00;21.10;90.80
39525;DHT22;25203;50.754;6.978;2022-09-09T12:28:11;21.20;88.30
39525;DHT22;25203;50.754;6.978;2022-09-09T12:30:16;20.90;90.30
39525;DHT22;25203;50.754;6.978;2022-09-09T12:32:22;20.90;89.30
39525;DHT22;25203;50.754;6.978;2022-09-09T12:34:38;20.90;89.80
39525;DHT22;25203;50.754;6.978;2022-09-09T12:36:39;21.00;90.10
39525;DHT22;25203;50.754;6.978;2022-09-09T12:38:42;21.00;90.60
39525;DHT22;25203;50.754;6.978;2022-09-09T12:40:54;21.10;89.70
39525;DHT22;25203;50.754;6.978;2022-09-09T12:42:55;21.20;90.30
39525;DHT22;25203;50.754;6.978;2022-09-09T12:45:01;21.20;90.60
39525;DHT22;25203;50.754;6.978;2022-09-09T12:47:03;21.20;90.20
39525;DHT22;25203;50.754;6.978;2022-09-09T12:49:04;21.10;90.40
39525;DHT22;25203;50.754;6.978;2022-09-09T12:51:26;20.90;91.00
39525;DHT22;25203;50.754;6.978;2022-09-09T12:53:34;20.80;91.80
39525;DHT22;25203;50.754;6.978;2022-09-09T12:55:36;20.80;90.80
39525;DHT22;25203;50.754;6.978;2022-09-09T12:57:39;20.70;91.30
39525;DHT22;25203;50.754;6.978;2022-09-09T12:59:42;20.70;91.50
39525;DHT22;25203;50.754;6.978;2022-09-09T13:01:55;20.50;90.90
39525;DHT22;25203;50.754;6.978;2022-09-09T13:03:56;20.40;92.10
39525;DHT22;25203;50.754;6.978;2022-09-09T13:06:09;20.40;92.20
39525;DHT22;25203;50.754;6.978;2022-09-09T13:08:11;20.40;92.40
39525;DHT22;25203;50.754;6.978;2022-09-09T13:10:14;20.30;92.10
39525;DHT22;25203;50.754;6.978;2022-09-09T13:12:21;20.40;93.20
39525;DHT22;25203;50.754;6.978;2022-09-09T13:14:30;20.40;95.10
39525;DHT22;25203;50.754;6.978;2022-09-09T13:16:34;20.40;94.70
39525;DHT22;25203;50.754;6.978;2022-09-09T13:18:39;20.50;94.30
39525;DHT22;25203;50.754;6.978;2022-09-09T13:20:46;20.70;93.80
39525;DHT22;25203;50.754;6.978;2022-09-09T13:22:48;20.80;93.10
39525;DHT22;25203;50.754;6.978;2022-09-09T13:25:21;20.80;94.20
39525;DHT22;25203;50.754;6.978;2022-09-09T13:27:37;20.90;94.30
39525;DHT22;25203;50.754;6.978;2022-09-09T13:29:51;21.10;93.80
39525;DHT22;25203;50.754;6.978;2022-09-09T13:32:16;21.10;92.50
39525;DHT22;25203;50.754;6.978;2022-09-09T13:34:32;21.10;93.50
39525;DHT22;25203;50.754;6.978;2022-09-09T13:36:34;21.30;94.20
39525;DHT22;25203;50.754;6.978;2022-09-09T13:38:54;21.20;92.70
39525;DHT22;25203;50.754;6.978;2022-09-09T13:40:56;21.20;93.20
39525;DHT22;25203;50.754;6.978;2022-09-09T13:42:58;21.30;93.50
39525;DHT22;25203;50.754;6.978;2022-09-09T13:44:59;21.20;93.30
39525;DHT22;25203;50.754;6.978;2022-09-09T13:47:18;21.10;94.90
39525;DHT22;25203;50.754;6.978;2022-09-09T13:49:22;20.90;94.90
39525;DHT22;25203;50.754;6.978;2022-09-09T13:51:40;20.60;95.30
39525;DHT22;25203;50.754;6.978;2022-09-09T13:53:42;20.40;97.50
39525;DHT22;25203;50.754;6.978;2022-09-09T13:55:46;20.30;98.00
39525;DHT22;25203;50.754;6.978;2022-09-09T13:57:56;20.20;98.10
39525;DHT22;25203;50.754;6.978;2022-09-09T13:59:57;20.20;99.60
39525;DHT22;25203;50.754;6.978;2022-09-09T14:01:58;20.40;99.90
39525;DHT22;25203;50.754;6.978;2022-09-09T14:03:58;20.60;99.00
39525;DHT22;25203;50.754;6.978;2022-09-09T14:05:59;20.70;96.70
39525;DHT22;25203;50.754;6.978;2022-09-09T14:08:00;20.60;98.60
39525;DHT22;25203;50.754;6.978;2022-09-09T14:10:00;20.50;97.70
39525;DHT22;25203;50.754;6.978;2022-09-09T14:12:01;20.40;97.50
39525;DHT22;25203;50.754;6.978;2022-09-09T14:14:02;20.40;98.40
39525;DHT22;25203;50.754;6.978;2022-09-09T14:16:03;20.40;98.10
39525;DHT22;25203;50.754;6.978;2022-09-09T14:18:04;20.40;97.60
39525;DHT22;25203;50.754;6.978;2022-09-09T14:20:06;20.40;98.50
39525;DHT22;25203;50.754;6.978;2022-09-09T14:22:09;20.60;97.60
39525;DHT22;25203;50.754;6.978;2022-09-09T14:24:10;20.80;97.50
39525;DHT22;25203;50.754;6.978;2022-09-09T14:26:10;20.70;95.00
39525;DHT22;25203;50.754;6.978;2022-09-09T14:28:12;20.60;95.70
39525;DHT22;25203;50.754;6.978;2022-09-09T14:30:13;20.50;97.10
39525;DHT22;25203;50.754;6.978;2022-09-09T14:32:14;20.40;98.20
39525;DHT22;25203;50.754;6.978;2022-09-09T14:34:14;20.60;98.10
39525;DHT22;25203;50.754;6.978;2022-09-09T14:36:15;21.00;98.80
39525;DHT22;25203;50.754;6.978;2022-09-09T14:38:15;21.30;98.10
39525;DHT22;25203;50.754;6.978;2022-09-09T14:40:16;21.40;95.30